sensor_id;sensor_type;location;lat;lon;timestamp;temperature;humidity
57709;SHT35;42558;52.388;13.390;2024-02-15T00:02:27;8.46;93.75
57709;SHT35;42558;52.388;13.390;2024-02-15T00:04:57;8.46;93.81
57709;SHT35;42558;52.388;13.390;2024-02-15T00:07:27;8.43;93.80
57709;SHT35;42558;52.388;13.390;2024-02-15T00:09:57;8.45;93.80
57709;SHT35;42558;52.388;13.390;2024-02-15T00:12:29;8.45;93.80
57709;SHT35;42558;52.388;13.390;2024-02-15T00:15:00;8.45;93.77
57709;SHT35;42558;52.388;13.390;2024-02-15T00:17:30;8.46;93.72
57709;SHT35;42558;52.388;13.390;2024-02-15T00:20:02;8.49;93.78
57709;SHT35;42558;52.388;13.390;2024-02-15T00:22:40;8.51;93.86
57709;SHT35;42558;52.388;13.390;2024-02-15T00:25:10;8.52;93.88
57709;SHT35;42558;52.388;13.390;2024-02-15T00:27:40;8.54;93.95
57709;SHT35;42558;52.388;13.390;2024-02-15T00:30:11;8.54;94.00
57709;SHT35;42558;52.388;13.390;2024-02-15T00:32:42;8.56;94.05
57709;SHT35;42558;52.388;13.390;2024-02-15T00:35:12;8.56;94.00
57709;SHT35;42558;52.388;13.390;2024-02-15T00:37:43;8.57;94.00
57709;SHT35;42558;52.388;13.390;2024-02-15T00:40:13;8.57;93.98
57709;SHT35;42558;52.388;13.390;2024-02-15T00:42:44;8.60;94.00
57709;SHT35;42558;52.388;13.390;2024-02-15T00:45:13;8.60;94.06
57709;SHT35;42558;52.388;13.390;2024-02-15T00:47:44;8.61;94.03
57709;SHT35;42558;52.388;13.390;2024-02-15T00:50:14;8.62;94.05
57709;SHT35;42558;52.388;13.390;2024-02-15T00:52:44;8.60;94.04
57709;SHT35;42558;52.388;13.390;2024-02-15T00:55:14;8.65;94.04
57709;SHT35;42558;52.388;13.390;2024-02-15T00:57:44;8.67;94.05
57709;SHT35;42558;52.388;13.390;2024-02-15T01:00:14;8.68;94.09
57709;SHT35;42558;52.388;13.390;2024-02-15T01:02:45;8.68;94.07
57709;SHT35;42558;52.388;13.390;2024-02-15T01:05:15;8.70;94.10
57709;SHT35;42558;52.388;13.390;2024-02-15T01:07:45;8.70;94.11
57709;SHT35;42558;52.388;13.390;2024-02-15T01:10:16;8.70;94.20
57709;SHT35;42558;52.388;13.390;2024-02-15T01:12:45;8.70;94.20
57709;SHT35;42558;52.388;13.390;2024-02-15T01:15:15;8.70;94.20
57709;SHT35;42558;52.388;13.390;2024-02-15T01:17:48;8.69;94.16
57709;SHT35;42558;52.388;13.390;2024-02-15T01:20:18;8.70;94.20
57709;SHT35;42558;52.388;13.390;2024-02-15T01:22:49;8.71;94.21
57709;SHT35;42558;52.388;13.390;2024-02-15T01:25:21;8.71;94.22
57709;SHT35;42558;52.388;13.390;2024-02-15T01:27:51;8.71;94.21
57709;SHT35;42558;52.388;13.390;2024-02-15T01:30:21;8.72;94.21
57709;SHT35;42558;52.388;13.390;2024-02-15T01:32:52;8.72;94.30
57709;SHT35;42558;52.388;13.390;2024-02-15T01:35:22;8.73;94.31
57709;SHT35;42558;52.388;13.390;2024-02-15T01:37:51;8.72;94.35
57709;SHT35;42558;52.388;13.390;2024-02-15T01:40:21;8.73;94.40
57709;SHT35;42558;52.388;13.390;2024-02-15T01:42:51;8.73;94.32
57709;SHT35;42558;52.388;13.390;2024-02-15T01:45:21;8.74;94.40
57709;SHT35;42558;52.388;13.390;2024-02-15T01:47:52;8.72;94.40
57709;SHT35;42558;52.388;13.390;2024-02-15T01:50:23;8.72;94.33
57709;SHT35;42558;52.388;13.390;2024-02-15T01:52:55;8.74;94.33
57709;SHT35;42558;52.388;13.390;2024-02-15T01:55:27;8.74;94.32
57709;SHT35;42558;52.388;13.390;2024-02-15T01:57:57;8.73;94.36
57709;SHT35;42558;52.388;13.390;2024-02-15T02:00:28;8.73;94.37
57709;SHT35;42558;52.388;13.390;2024-02-15T02:03:00;8.73;94.42
57709;SHT35;42558;52.388;13.390;2024-02-15T02:05:33;8.75;94.43
57709;SHT35;42558;52.388;13.390;2024-02-15T02:08:03;8.74;94.43
57709;SHT35;42558;52.388;13.390;2024-02-15T02:10:38;8.73;94.45
57709;SHT35;42558;52.388;13.390;2024-02-15T02:13:09;8.74;94.52
57709;SHT35;42558;52.388;13.390;2024-02-15T02:15:40;8.74;94.60
57709;SHT35;42558;52.388;13.390;2024-02-15T02:18:10;8.74;94.60
57709;SHT35;42558;52.388;13.390;2024-02-15T02:20:40;8.74;94.57
57709;SHT35;42558;52.388;13.390;2024-02-15T02:23:14;8.76;94.58
57709;SHT35;42558;52.388;13.390;2024-02-15T02:25:48;8.75;94.54
57709;SHT35;42558;52.388;13.390;2024-02-15T02:28:18;8.76;94.60
57709;SHT35;42558;52.388;13.390;2024-02-15T02:30:48;8.76;94.56
57709;SHT35;42558;52.388;13.390;2024-02-15T02:33:19;8.76;94.60
57709;SHT35;42558;52.388;13.390;2024-02-15T02:35:52;8.76;94.60
57709;SHT35;42558;52.388;13.390;2024-02-15T02:38:22;8.76;94.60
57709;SHT35;42558;52.388;13.390;2024-02-15T02:40:55;8.78;94.66
57709;SHT35;42558;52.388;13.390;2024-02-15T02:43:25;8.77;94.69
57709;SHT35;42558;52.388;13.390;2024-02-15T02:45:55;8.79;94.69
57709;SHT35;42558;52.388;13.390;2024-02-15T02:48:25;8.79;94.64
57709;SHT35;42558;52.388;13.390;2024-02-15T02:50:56;8.81;94.60
57709;SHT35;42558;52.388;13.390;2024-02-15T02:53:27;8.81;94.61
57709;SHT35;42558;52.388;13.390;2024-02-15T02:55:57;8.81;94.60
57709;SHT35;42558;52.388;13.390;2024-02-15T02:58:27;8.81;94.60
57709;SHT35;42558;52.388;13.390;2024-02-15T03:00:58;8.82;94.62
57709;SHT35;42558;52.388;13.390;2024-02-15T03:03:30;8.81;94.62
57709;SHT35;42558;52.388;13.390;2024-02-15T03:06:00;8.82;94.60
57709;SHT35;42558;52.388;13.390;2024-02-15T03:08:31;8.83;94.60
57709;SHT35;42558;52.388;13.390;2024-02-15T03:10:59;8.84;94.64
57709;SHT35;42558;52.388;13.390;2024-02-15T03:13:29;8.86;94.68
57709;SHT35;42558;52.388;13.390;2024-02-15T03:15:57;8.86;94.70
57709;SHT35;42558;52.388;13.390;2024-02-15T03:18:25;8.85;94.68
57709;SHT35;42558;52.388;13.390;2024-02-15T03:20:54;8.86;94.69
57709;SHT35;42558;52.388;13.390;2024-02-15T03:23:24;8.87;94.70
57709;SHT35;42558;52.388;13.390;2024-02-15T03:25:53;8.89;94.74
57709;SHT35;42558;52.388;13.390;2024-02-15T03:28:23;8.90;94.74
57709;SHT35;42558;52.388;13.390;2024-02-15T03:30:54;8.90;94.76
57709;SHT35;42558;52.388;13.390;2024-02-15T03:33:25;8.89;94.76
57709;SHT35;42558;52.388;13.390;2024-02-15T03:35:58;8.90;94.80
57709;SHT35;42558;52.388;13.390;2024-02-15T03:38:30;8.91;94.79
57709;SHT35;42558;52.388;13.390;2024-02-15T03:41:01;8.90;94.78
57709;SHT35;42558;52.388;13.390;2024-02-15T03:43:31;8.92;94.78
57709;SHT35;42558;52.388;13.390;2024-02-15T03:46:03;8.91;94.74
57709;SHT35;42558;52.388;13.390;2024-02-15T03:48:33;8.91;94.70
57709;SHT35;42558;52.388;13.390;2024-02-15T03:51:03;8.91;94.78
57709;SHT35;42558;52.388;13.390;2024-02-15T03:53:33;8.91;94.74
57709;SHT35;42558;52.388;13.390;2024-02-15T03:56:04;8.92;94.75
57709;SHT35;42558;52.388;13.390;2024-02-15T03:58:34;8.92;94.79
57709;SHT35;42558;52.388;13.390;2024-02-15T04:01:06;8.94;94.81
57709;SHT35;42558;52.388;13.390;2024-02-15T04:03:38;8.94;94.80
57709;SHT35;42558;52.388;13.390;2024-02-15T04:06:07;8.94;94.80
57709;SHT35;42558;52.388;13.390;2024-02-15T04:08:38;8.94;94.81
57709;SHT35;42558;52.388;13.390;2024-02-15T04:11:09;8.93;94.81
57709;SHT35;42558;52.388;13.390;2024-02-15T04:13:39;8.92;94.80
57709;SHT35;42558;52.388;13.390;2024-02-15T04:16:09;8.95;94.85
57709;SHT35;42558;52.388;13.390;2024-02-15T04:18:39;8.95;94.90
57709;SHT35;42558;52.388;13.390;2024-02-15T04:21:11;8.94;94.90
57709;SHT35;42558;52.388;13.390;2024-02-15T04:23:41;8.96;94.90
57709;SHT35;42558;52.388;13.390;2024-02-15T04:26:13;8.98;94.90
57709;SHT35;42558;52.388;13.390;2024-02-15T04:28:43;8.98;94.90
57709;SHT35;42558;52.388;13.390;2024-02-15T04:31:13;8.98;94.90
57709;SHT35;42558;52.388;13.390;2024-02-15T04:33:44;8.98;94.88
57709;SHT35;42558;52.388;13.390;2024-02-15T04:36:18;9.00;94.90
57709;SHT35;42558;52.388;13.390;2024-02-15T04:38:53;8.99;94.90
57709;SHT35;42558;52.388;13.390;2024-02-15T04:41:23;9.01;94.90
57709;SHT35;42558;52.388;13.390;2024-02-15T04:43:53;9.00;94.90
57709;SHT35;42558;52.388;13.390;2024-02-15T04:46:23;9.01;94.95
57709;SHT35;42558;52.388;13.390;2024-02-15T04:48:54;9.01;95.00
57709;SHT35;42558;52.388;13.390;2024-02-15T04:51:25;9.00;95.00
57709;SHT35;42558;52.388;13.390;2024-02-15T04:53:57;9.04;95.00
57709;SHT35;42558;52.388;13.390;2024-02-15T04:56:27;9.04;95.00
57709;SHT35;42558;52.388;13.390;2024-02-15T04:58:58;9.05;95.00
57709;SHT35;42558;52.388;13.390;2024-02-15T05:01:28;9.05;95.00
57709;SHT35;42558;52.388;13.390;2024-02-15T05:04:02;9.05;94.94
57709;SHT35;42558;52.388;13.390;2024-02-15T05:06:37;9.06;94.93
57709;SHT35;42558;52.388;13.390;2024-02-15T05:09:08;9.08;94.98
57709;SHT35;42558;52.388;13.390;2024-02-15T05:11:40;9.08;94.95
57709;SHT35;42558;52.388;13.390;2024-02-15T05:14:17;9.07;94.91
57709;SHT35;42558;52.388;13.390;2024-02-15T05:16:49;9.11;94.97
57709;SHT35;42558;52.388;13.390;2024-02-15T05:19:19;9.13;95.00
57709;SHT35;42558;52.388;13.390;2024-02-15T05:21:49;9.12;94.99
57709;SHT35;42558;52.388;13.390;2024-02-15T05:24:20;9.14;95.00
57709;SHT35;42558;52.388;13.390;2024-02-15T05:26:50;9.15;95.00
57709;SHT35;42558;52.388;13.390;2024-02-15T05:29:20;9.15;95.01
57709;SHT35;42558;52.388;13.390;2024-02-15T05:31:52;9.15;95.00
57709;SHT35;42558;52.388;13.390;2024-02-15T05:34:24;9.17;95.00
57709;SHT35;42558;52.388;13.390;2024-02-15T05:36:56;9.17;95.00
57709;SHT35;42558;52.388;13.390;2024-02-15T05:39:26;9.20;95.00
57709;SHT35;42558;52.388;13.390;2024-02-15T05:41:56;9.18;95.00
57709;SHT35;42558;52.388;13.390;2024-02-15T05:44:30;9.18;94.95
57709;SHT35;42558;52.388;13.390;2024-02-15T05:47:00;9.19;94.96
57709;SHT35;42558;52.388;13.390;2024-02-15T05:49:30;9.20;94.98
57709;SHT35;42558;52.388;13.390;2024-02-15T05:52:00;9.19;94.96
57709;SHT35;42558;52.388;13.390;2024-02-15T05:54:30;9.21;94.95
57709;SHT35;42558;52.388;13.390;2024-02-15T05:56:57;9.23;94.99
57709;SHT35;42558;52.388;13.390;2024-02-15T05:59:33;9.26;94.97
57709;SHT35;42558;52.388;13.390;2024-02-15T06:02:01;9.26;94.99
57709;SHT35;42558;52.388;13.390;2024-02-15T06:04:31;9.29;95.00
57709;SHT35;42558;52.388;13.390;2024-02-15T06:06:59;9.27;95.00
57709;SHT35;42558;52.388;13.390;2024-02-15T06:09:30;9.28;94.98
57709;SHT35;42558;52.388;13.390;2024-02-15T06:12:03;9.27;94.95
57709;SHT35;42558;52.388;13.390;2024-02-15T06:14:34;9.29;94.96
57709;SHT35;42558;52.388;13.390;2024-02-15T06:17:04;9.29;95.00
57709;SHT35;42558;52.388;13.390;2024-02-15T06:19:34;9.30;94.96
57709;SHT35;42558;52.388;13.390;2024-02-15T06:22:04;9.33;94.96
57709;SHT35;42558;52.388;13.390;2024-02-15T06:24:34;9.34;94.93
57709;SHT35;42558;52.388;13.390;2024-02-15T06:27:04;9.33;94.92
57709;SHT35;42558;52.388;13.390;2024-02-15T06:29:35;9.34;94.94
57709;SHT35;42558;52.388;13.390;2024-02-15T06:32:24;9.32;94.90
57709;SHT35;42558;52.388;13.390;2024-02-15T06:35:15;9.34;94.93
57709;SHT35;42558;52.388;13.390;2024-02-15T06:38:04;9.35;94.92
57709;SHT35;42558;52.388;13.390;2024-02-15T06:40:52;9.36;94.94
57709;SHT35;42558;52.388;13.390;2024-02-15T06:43:23;9.36;94.92
57709;SHT35;42558;52.388;13.390;2024-02-15T06:45:54;9.35;94.90
57709;SHT35;42558;52.388;13.390;2024-02-15T06:48:24;9.40;94.90
57709;SHT35;42558;52.388;13.390;2024-02-15T06:50:55;9.40;94.90
57709;SHT35;42558;52.388;13.390;2024-02-15T06:53:26;9.40;94.90
57709;SHT35;42558;52.388;13.390;2024-02-15T06:55:57;9.40;94.90
57709;SHT35;42558;52.388;13.390;2024-02-15T06:58:26;9.41;94.88
57709;SHT35;42558;52.388;13.390;2024-02-15T07:00:56;9.41;94.84
57709;SHT35;42558;52.388;13.390;2024-02-15T07:03:28;9.43;94.86
57709;SHT35;42558;52.388;13.390;2024-02-15T07:05:59;9.45;94.86
57709;SHT35;42558;52.388;13.390;2024-02-15T07:08:31;9.47;94.90
57709;SHT35;42558;52.388;13.390;2024-02-15T07:11:02;9.47;94.86
57709;SHT35;42558;52.388;13.390;2024-02-15T07:13:33;9.47;94.85
57709;SHT35;42558;52.388;13.390;2024-02-15T07:16:00;9.51;94.83
57709;SHT35;42558;52.388;13.390;2024-02-15T07:18:31;9.51;94.82
57709;SHT35;42558;52.388;13.390;2024-02-15T07:20:58;9.53;94.81
57709;SHT35;42558;52.388;13.390;2024-02-15T07:23:30;9.55;94.80
57709;SHT35;42558;52.388;13.390;2024-02-15T07:26:03;9.57;94.80
57709;SHT35;42558;52.388;13.390;2024-02-15T07:28:33;9.59;94.80
57709;SHT35;42558;52.388;13.390;2024-02-15T07:31:03;9.60;94.78
57709;SHT35;42558;52.388;13.390;2024-02-15T07:33:33;9.61;94.75
57709;SHT35;42558;52.388;13.390;2024-02-15T07:36:05;9.64;94.75
57709;SHT35;42558;52.388;13.390;2024-02-15T07:38:36;9.68;94.76
57709;SHT35;42558;52.388;13.390;2024-02-15T07:41:06;9.68;94.75
57709;SHT35;42558;52.388;13.390;2024-02-15T07:43:35;9.68;94.70
57709;SHT35;42558;52.388;13.390;2024-02-15T07:46:05;9.72;94.70
57709;SHT35;42558;52.388;13.390;2024-02-15T07:48:36;9.74;94.70
57709;SHT35;42558;52.388;13.390;2024-02-15T07:51:06;9.76;94.62
57709;SHT35;42558;52.388;13.390;2024-02-15T07:53:39;9.77;94.60
57709;SHT35;42558;52.388;13.390;2024-02-15T07:56:10;9.82;94.60
57709;SHT35;42558;52.388;13.390;2024-02-15T07:58:41;9.86;94.60
57709;SHT35;42558;52.388;13.390;2024-02-15T08:01:21;9.87;94.55
57709;SHT35;42558;52.388;13.390;2024-02-15T08:03:54;9.87;94.50
57709;SHT35;42558;52.388;13.390;2024-02-15T08:06:25;9.90;94.51
57709;SHT35;42558;52.388;13.390;2024-02-15T08:08:56;9.89;94.42
57709;SHT35;42558;52.388;13.390;2024-02-15T08:11:27;9.95;94.40
57709;SHT35;42558;52.388;13.390;2024-02-15T08:13:56;10.00;94.34
57709;SHT35;42558;52.388;13.390;2024-02-15T08:16:29;10.06;94.35
57709;SHT35;42558;52.388;13.390;2024-02-15T08:18:58;10.11;94.35
57709;SHT35;42558;52.388;13.390;2024-02-15T08:21:31;10.15;94.30
57709;SHT35;42558;52.388;13.390;2024-02-15T08:24:03;10.16;94.31
57709;SHT35;42558;52.388;13.390;2024-02-15T08:26:39;10.19;94.28
57709;SHT35;42558;52.388;13.390;2024-02-15T08:29:10;10.20;94.21
57709;SHT35;42558;52.388;13.390;2024-02-15T08:31:41;10.20;94.13
57709;SHT35;42558;52.388;13.390;2024-02-15T08:34:11;10.22;94.12
57709;SHT35;42558;52.388;13.390;2024-02-15T08:36:44;10.24;94.12
57709;SHT35;42558;52.388;13.390;2024-02-15T08:39:14;10.31;94.16
57709;SHT35;42558;52.388;13.390;2024-02-15T08:41:45;10.33;94.16
57709;SHT35;42558;52.388;13.390;2024-02-15T08:44:14;10.32;94.04
57709;SHT35;42558;52.388;13.390;2024-02-15T08:46:42;10.31;93.92
57709;SHT35;42558;52.388;13.390;2024-02-15T08:49:10;10.31;93.83
57709;SHT35;42558;52.388;13.390;2024-02-15T08:51:43;10.33;93.82
57709;SHT35;42558;52.388;13.390;2024-02-15T08:54:13;10.34;93.77
57709;SHT35;42558;52.388;13.390;2024-02-15T08:56:43;10.38;93.79
57709;SHT35;42558;52.388;13.390;2024-02-15T08:59:13;10.42;93.79
57709;SHT35;42558;52.388;13.390;2024-02-15T09:01:45;10.43;93.74
57709;SHT35;42558;52.388;13.390;2024-02-15T09:04:15;10.48;93.65
57709;SHT35;42558;52.388;13.390;2024-02-15T09:06:45;10.50;93.59
57709;SHT35;42558;52.388;13.390;2024-02-15T09:09:16;10.55;93.56
57709;SHT35;42558;52.388;13.390;2024-02-15T09:11:46;10.62;93.44
57709;SHT35;42558;52.388;13.390;2024-02-15T09:14:16;10.72;93.49
57709;SHT35;42558;52.388;13.390;2024-02-15T09:16:46;10.80;93.40
57709;SHT35;42558;52.388;13.390;2024-02-15T09:19:16;10.81;93.27
57709;SHT35;42558;52.388;13.390;2024-02-15T09:21:46;10.91;93.17
57709;SHT35;42558;52.388;13.390;2024-02-15T09:24:16;10.92;92.98
57709;SHT35;42558;52.388;13.390;2024-02-15T09:26:46;10.90;92.74
57709;SHT35;42558;52.388;13.390;2024-02-15T09:29:16;10.97;92.74
57709;SHT35;42558;52.388;13.390;2024-02-15T09:31:47;11.01;92.70
57709;SHT35;42558;52.388;13.390;2024-02-15T09:34:17;10.98;92.49
57709;SHT35;42558;52.388;13.390;2024-02-15T09:36:48;10.94;92.39
57709;SHT35;42558;52.388;13.390;2024-02-15T09:39:18;10.94;92.34
57709;SHT35;42558;52.388;13.390;2024-02-15T09:41:48;10.96;92.41
57709;SHT35;42558;52.388;13.390;2024-02-15T09:44:25;10.98;92.48
57709;SHT35;42558;52.388;13.390;2024-02-15T09:47:03;11.01;92.50
57709;SHT35;42558;52.388;13.390;2024-02-15T09:49:35;10.98;92.30
57709;SHT35;42558;52.388;13.390;2024-02-15T09:52:09;11.01;92.37
57709;SHT35;42558;52.388;13.390;2024-02-15T09:54:45;11.08;92.40
57709;SHT35;42558;52.388;13.390;2024-02-15T09:57:16;11.15;92.34
57709;SHT35;42558;52.388;13.390;2024-02-15T09:59:47;11.16;91.96
57709;SHT35;42558;52.388;13.390;2024-02-15T10:02:18;11.24;92.02
57709;SHT35;42558;52.388;13.390;2024-02-15T10:04:48;11.26;91.76
57709;SHT35;42558;52.388;13.390;2024-02-15T10:07:20;11.35;91.70
57709;SHT35;42558;52.388;13.390;2024-02-15T10:09:50;11.47;91.78
57709;SHT35;42558;52.388;13.390;2024-02-15T10:12:21;11.57;91.80
57709;SHT35;42558;52.388;13.390;2024-02-15T10:14:52;11.63;91.68
57709;SHT35;42558;52.388;13.390;2024-02-15T10:17:22;11.60;91.19
57709;SHT35;42558;52.388;13.390;2024-02-15T10:20:05;11.60;91.13
57709;SHT35;42558;52.388;13.390;2024-02-15T10:22:40;11.77;91.23
57709;SHT35;42558;52.388;13.390;2024-02-15T10:25:10;11.82;90.99
57709;SHT35;42558;52.388;13.390;2024-02-15T10:27:44;11.84;90.66
57709;SHT35;42558;52.388;13.390;2024-02-15T10:30:17;11.84;90.52
57709;SHT35;42558;52.388;13.390;2024-02-15T10:32:49;11.99;90.67
57709;SHT35;42558;52.388;13.390;2024-02-15T10:35:20;12.09;90.40
57709;SHT35;42558;52.388;13.390;2024-02-15T10:37:51;12.12;90.07
57709;SHT35;42558;52.388;13.390;2024-02-15T10:40:22;12.11;89.74
57709;SHT35;42558;52.388;13.390;2024-02-15T10:42:51;12.18;89.62
57709;SHT35;42558;52.388;13.390;2024-02-15T10:45:19;12.18;89.60
57709;SHT35;42558;52.388;13.390;2024-02-15T10:47:48;12.19;89.60
57709;SHT35;42558;52.388;13.390;2024-02-15T10:50:16;12.32;89.81
57709;SHT35;42558;52.388;13.390;2024-02-15T10:52:51;12.38;89.46
57709;SHT35;42558;52.388;13.390;2024-02-15T10:55:36;12.27;89.31
57709;SHT35;42558;52.388;13.390;2024-02-15T10:58:16;12.21;89.38
57709;SHT35;42558;52.388;13.390;2024-02-15T11:00:50;12.25;89.47
57709;SHT35;42558;52.388;13.390;2024-02-15T11:03:24;12.30;89.46
57709;SHT35;42558;52.388;13.390;2024-02-15T11:06:05;12.27;89.25
57709;SHT35;42558;52.388;13.390;2024-02-15T11:08:37;12.36;89.39
57709;SHT35;42558;52.388;13.390;2024-02-15T11:11:09;12.40;89.16
57709;SHT35;42558;52.388;13.390;2024-02-15T11:13:41;12.53;89.18
57709;SHT35;42558;52.388;13.390;2024-02-15T11:16:34;12.61;88.72
57709;SHT35;42558;52.388;13.390;2024-02-15T11:19:39;12.53;88.27
57709;SHT35;42558;52.388;13.390;2024-02-15T11:22:08;12.61;88.48
57709;SHT35;42558;52.388;13.390;2024-02-15T11:24:51;12.68;88.23
57709;SHT35;42558;52.388;13.390;2024-02-15T11:27:25;12.69;88.30
57709;SHT35;42558;52.388;13.390;2024-02-15T11:29:58;12.62;87.87
57709;SHT35;42558;52.388;13.390;2024-02-15T11:32:49;12.71;88.01
57709;SHT35;42558;52.388;13.390;2024-02-15T11:35:23;12.80;88.06
57709;SHT35;42558;52.388;13.390;2024-02-15T11:37:56;12.84;87.77
57709;SHT35;42558;52.388;13.390;2024-02-15T11:43:44;12.93;87.40
57709;SHT35;42558;52.388;13.390;2024-02-15T11:46:26;12.82;87.45
57709;SHT35;42558;52.388;13.390;2024-02-15T11:49:00;13.00;87.55
57709;SHT35;42558;52.388;13.390;2024-02-15T11:51:32;12.93;87.21
57709;SHT35;42558;52.388;13.390;2024-02-15T11:54:13;12.85;87.27
57709;SHT35;42558;52.388;13.390;2024-02-15T11:56:50;12.80;87.47
57709;SHT35;42558;52.388;13.390;2024-02-15T11:59:45;12.79;87.44
57709;SHT35;42558;52.388;13.390;2024-02-15T12:02:36;12.82;87.67
57709;SHT35;42558;52.388;13.390;2024-02-15T12:05:25;12.81;87.70
57709;SHT35;42558;52.388;13.390;2024-02-15T12:08:14;12.78;87.82
57709;SHT35;42558;52.388;13.390;2024-02-15T12:11:02;12.75;87.78
57709;SHT35;42558;52.388;13.390;2024-02-15T12:13:52;12.78;87.87
57709;SHT35;42558;52.388;13.390;2024-02-15T12:16:39;12.76;87.75
57709;SHT35;42558;52.388;13.390;2024-02-15T12:19:28;12.75;87.70
57709;SHT35;42558;52.388;13.390;2024-02-15T12:21:58;12.82;87.76
57709;SHT35;42558;52.388;13.390;2024-02-15T12:24:31;12.89;87.69
57709;SHT35;42558;52.388;13.390;2024-02-15T12:27:02;12.94;87.38
57709;SHT35;42558;52.388;13.390;2024-02-15T12:29:33;12.95;87.06
57709;SHT35;42558;52.388;13.390;2024-02-15T12:32:04;12.99;87.14
57709;SHT35;42558;52.388;13.390;2024-02-15T12:34:34;13.08;87.15
57709;SHT35;42558;52.388;13.390;2024-02-15T12:37:08;12.98;86.57
57709;SHT35;42558;52.388;13.390;2024-02-15T12:39:39;12.98;86.84
57709;SHT35;42558;52.388;13.390;2024-02-15T12:42:10;13.13;86.67
57709;SHT35;42558;52.388;13.390;2024-02-15T12:44:44;13.19;86.24
57709;SHT35;42558;52.388;13.390;2024-02-15T12:47:22;13.16;85.95
57709;SHT35;42558;52.388;13.390;2024-02-15T12:49:54;13.15;85.91
57709;SHT35;42558;52.388;13.390;2024-02-15T12:55:12;13.20;85.33
57709;SHT35;42558;52.388;13.390;2024-02-15T12:57:52;13.42;85.58
57709;SHT35;42558;52.388;13.390;2024-02-15T13:00:26;13.57;84.69
57709;SHT35;42558;52.388;13.390;2024-02-15T13:03:04;13.43;84.51
57709;SHT35;42558;52.388;13.390;2024-02-15T13:05:38;13.55;84.45
57709;SHT35;42558;52.388;13.390;2024-02-15T13:08:10;13.61;84.38
57709;SHT35;42558;52.388;13.390;2024-02-15T13:10:44;13.69;84.46
57709;SHT35;42558;52.388;13.390;2024-02-15T13:13:14;13.65;84.03
57709;SHT35;42558;52.388;13.390;2024-02-15T13:15:45;13.59;84.04
57709;SHT35;42558;52.388;13.390;2024-02-15T13:18:21;13.72;84.37
57709;SHT35;42558;52.388;13.390;2024-02-15T13:20:51;13.75;83.89
57709;SHT35;42558;52.388;13.390;2024-02-15T13:23:21;13.82;83.93
57709;SHT35;42558;52.388;13.390;2024-02-15T13:25:55;13.78;83.86
57709;SHT35;42558;52.388;13.390;2024-02-15T13:28:33;13.73;83.84
57709;SHT35;42558;52.388;13.390;2024-02-15T13:31:03;13.66;83.86
57709;SHT35;42558;52.388;13.390;2024-02-15T13:33:30;13.66;84.30
57709;SHT35;42558;52.388;13.390;2024-02-15T13:36:01;13.59;84.40
57709;SHT35;42558;52.388;13.390;2024-02-15T13:38:33;13.57;84.08
57709;SHT35;42558;52.388;13.390;2024-02-15T13:41:03;13.57;83.95
57709;SHT35;42558;52.388;13.390;2024-02-15T13:43:33;13.49;84.21
57709;SHT35;42558;52.388;13.390;2024-02-15T13:46:04;13.39;84.40
57709;SHT35;42558;52.388;13.390;2024-02-15T13:48:34;13.39;84.60
57709;SHT35;42558;52.388;13.390;2024-02-15T13:51:04;13.39;84.33
57709;SHT35;42558;52.388;13.390;2024-02-15T13:53:34;13.46;84.48
57709;SHT35;42558;52.388;13.390;2024-02-15T13:56:04;13.50;84.39
57709;SHT35;42558;52.388;13.390;2024-02-15T13:58:36;13.54;84.14
57709;SHT35;42558;52.388;13.390;2024-02-15T14:01:06;13.48;84.20
57709;SHT35;42558;52.388;13.390;2024-02-15T14:03:36;13.45;84.33
57709;SHT35;42558;52.388;13.390;2024-02-15T14:06:06;13.41;84.39
57709;SHT35;42558;52.388;13.390;2024-02-15T14:08:36;13.44;84.42
57709;SHT35;42558;52.388;13.390;2024-02-15T14:11:06;13.36;84.35
57709;SHT35;42558;52.388;13.390;2024-02-15T14:13:36;13.32;84.43
57709;SHT35;42558;52.388;13.390;2024-02-15T14:16:06;13.40;84.59
57709;SHT35;42558;52.388;13.390;2024-02-15T14:18:37;13.46;84.30
57709;SHT35;42558;52.388;13.390;2024-02-15T14:21:08;13.49;84.43
57709;SHT35;42558;52.388;13.390;2024-02-15T14:23:40;13.57;84.30
57709;SHT35;42558;52.388;13.390;2024-02-15T14:26:10;13.52;84.17
57709;SHT35;42558;52.388;13.390;2024-02-15T14:28:40;13.44;84.14
57709;SHT35;42558;52.388;13.390;2024-02-15T14:31:11;13.35;84.50
57709;SHT35;42558;52.388;13.390;2024-02-15T14:34:00;13.36;84.68
57709;SHT35;42558;52.388;13.390;2024-02-15T14:36:30;13.32;84.80
57709;SHT35;42558;52.388;13.390;2024-02-15T14:39:00;13.32;85.13
57709;SHT35;42558;52.388;13.390;2024-02-15T14:41:30;13.31;85.11
57709;SHT35;42558;52.388;13.390;2024-02-15T14:44:02;13.32;85.23
57709;SHT35;42558;52.388;13.390;2024-02-15T14:46:32;13.37;85.21
57709;SHT35;42558;52.388;13.390;2024-02-15T14:49:05;13.31;84.85
57709;SHT35;42558;52.388;13.390;2024-02-15T14:51:36;13.32;84.97
57709;SHT35;42558;52.388;13.390;2024-02-15T14:54:08;13.30;84.93
57709;SHT35;42558;52.388;13.390;2024-02-15T14:56:38;13.30;85.06
57709;SHT35;42558;52.388;13.390;2024-02-15T14:59:10;13.25;85.22
57709;SHT35;42558;52.388;13.390;2024-02-15T15:01:41;13.23;85.39
57709;SHT35;42558;52.388;13.390;2024-02-15T15:04:11;13.24;85.43
57709;SHT35;42558;52.388;13.390;2024-02-15T15:06:44;13.21;85.44
57709;SHT35;42558;52.388;13.390;2024-02-15T15:09:33;13.18;85.59
57709;SHT35;42558;52.388;13.390;2024-02-15T15:12:21;13.11;85.79
57709;SHT35;42558;52.388;13.390;2024-02-15T15:15:09;13.07;86.02
57709;SHT35;42558;52.388;13.390;2024-02-15T15:17:42;13.06;86.11
57709;SHT35;42558;52.388;13.390;2024-02-15T15:20:12;13.05;86.20
57709;SHT35;42558;52.388;13.390;2024-02-15T15:22:42;13.04;86.20
57709;SHT35;42558;52.388;13.390;2024-02-15T15:25:13;13.06;86.20
57709;SHT35;42558;52.388;13.390;2024-02-15T15:27:41;13.04;86.10
57709;SHT35;42558;52.388;13.390;2024-02-15T15:30:11;13.03;86.19
57709;SHT35;42558;52.388;13.390;2024-02-15T15:32:42;13.02;86.21
57709;SHT35;42558;52.388;13.390;2024-02-15T15:35:16;12.98;86.32
57709;SHT35;42558;52.388;13.390;2024-02-15T15:37:47;12.96;86.28
57709;SHT35;42558;52.388;13.390;2024-02-15T15:40:20;12.95;86.13
57709;SHT35;42558;52.388;13.390;2024-02-15T15:42:50;12.93;86.03
57709;SHT35;42558;52.388;13.390;2024-02-15T15:45:20;12.92;86.01
57709;SHT35;42558;52.388;13.390;2024-02-15T15:47:52;12.94;86.06
57709;SHT35;42558;52.388;13.390;2024-02-15T15:50:22;12.88;86.15
57709;SHT35;42558;52.388;13.390;2024-02-15T15:52:52;12.84;86.34
57709;SHT35;42558;52.388;13.390;2024-02-15T15:55:23;12.81;86.41
57709;SHT35;42558;52.388;13.390;2024-02-15T15:57:54;12.79;86.41
57709;SHT35;42558;52.388;13.390;2024-02-15T16:00:24;12.76;86.55